Time;durP1;ratioP1;P1;durP2;ratioP2;P2;SDS_P1;SDS_P2;PMS_P1;PMS_P2;Temp;Humidity;BMP_temperature;BMP_pressure;BME280_temperature;BME280_humidity;BME280_pressure;Samples;Min_cycle;Max_cycle;Signal;HPM_P1;HPM_P2
2023/12/25 00:01:12;;;;;;;7.50;5.57;;;;;;;1.48;65.47;97529.56;5078351;28;20030;-72
2023/12/25 00:03:37;;;;;;;7.07;5.00;;;;;;;1.43;65.46;97526.44;5090994;28;20404;-63
2023/12/25 00:06:03;;;;;;;7.22;5.38;;;;;;;1.48;65.05;97542.75;5093516;28;20082;-70
2023/12/25 00:08:29;;;;;;;8.48;5.97;;;;;;;1.39;66.07;97554.84;5095151;28;20081;-64
2023/12/25 00:10:54;;;;;;;8.93;5.22;;;;;;;1.39;65.79;97551.38;5094337;28;20047;-63
2023/12/25 00:13:20;;;;;;;7.05;5.45;;;;;;;1.35;65.47;97547.31;5094645;28;20036;-62
2023/12/25 00:15:45;;;;;;;6.63;5.18;;;;;;;1.29;65.51;97538.06;5090675;28;20327;-64
2023/12/25 00:18:11;;;;;;;6.75;5.10;;;;;;;1.34;65.85;97550.91;5074661;28;20060;-63
2023/12/25 00:20:38;;;;;;;6.97;4.95;;;;;;;1.32;65.84;97551.00;5074694;28;20032;-64
2023/12/25 00:23:04;;;;;;;6.72;5.32;;;;;;;1.27;65.73;97559.31;5075746;28;20032;-72
2023/12/25 00:25:29;;;;;;;6.88;4.93;;;;;;;1.24;65.68;97556.91;5090813;28;20059;-63
2023/12/25 00:27:55;;;;;;;7.85;5.45;;;;;;;1.21;65.83;97558.94;5094989;28;20386;-62
2023/12/25 00:30:20;;;;;;;7.32;5.00;;;;;;;1.23;65.85;97560.50;5088505;28;20057;-64
2023/12/25 00:32:46;;;;;;;8.57;5.28;;;;;;;1.27;65.67;97571.63;5073216;28;20040;-62
2023/12/25 00:35:12;;;;;;;6.63;5.18;;;;;;;1.24;65.50;97567.47;5073775;28;20432;-62
2023/12/25 00:37:37;;;;;;;6.10;4.80;;;;;;;1.31;65.35;97573.06;5109654;28;20047;-64
2023/12/25 00:40:03;;;;;;;7.07;4.60;;;;;;;1.33;64.83;97570.31;5115386;28;20027;-63
2023/12/25 00:42:29;;;;;;;5.40;4.53;;;;;;;1.32;65.33;97568.66;5112682;28;20019;-63
2023/12/25 00:44:55;;;;;;;6.68;4.53;;;;;;;1.33;64.80;97571.16;5081215;28;20058;-63
2023/12/25 00:47:20;;;;;;;5.57;4.30;;;;;;;1.29;64.62;97570.56;5090669;28;20367;-63
2023/12/25 00:49:46;;;;;;;4.97;4.10;;;;;;;0.98;64.57;97522.06;5094332;28;20043;-62
2023/12/25 00:52:14;;;;;;;7.43;4.43;;;;;;;1.27;64.65;97566.34;5064707;28;20058;-66
2023/12/25 00:54:39;;;;;;;5.55;3.88;;;;;;;0.99;64.86;97510.56;5073607;28;20040;-63
2023/12/25 00:57:05;;;;;;;4.70;4.13;;;;;;;1.28;64.77;97573.31;5073498;28;20032;-63
2023/12/25 00:59:30;;;;;;;5.68;4.10;;;;;;;1.26;64.98;97562.03;5086220;28;20036;-63
2023/12/25 01:01:56;;;;;;;5.70;4.63;;;;;;;1.05;64.62;97530.31;5072230;28;20038;-62
2023/12/25 01:04:22;;;;;;;7.60;5.22;;;;;;;1.29;65.01;97578.47;5092635;28;20071;-62
2023/12/25 01:06:47;;;;;;;6.13;4.63;;;;;;;1.07;64.92;97538.94;5094115;28;20032;-63
2023/12/25 01:09:13;;;;;;;4.55;3.72;;;;;;;1.30;65.01;97576.66;5093160;28;20093;-62
2023/12/25 01:11:42;;;;;;;4.78;3.70;;;;;;;1.39;65.00;97585.66;5093637;28;20028;-63
2023/12/25 01:14:11;;;;;;;5.75;3.90;;;;;;;1.33;64.73;97579.09;5067469;28;20070;-74
2023/12/25 01:16:37;;;;;;;4.68;4.07;;;;;;;1.34;64.69;97587.81;5073784;28;20040;-63
2023/12/25 01:19:03;;;;;;;5.10;3.85;;;;;;;1.32;65.05;97589.72;5073850;28;20032;-62
2023/12/25 01:21:29;;;;;;;7.15;3.72;;;;;;;1.34;65.32;97572.84;5081981;28;20047;-62
2023/12/25 01:23:54;;;;;;;6.18;4.05;;;;;;;1.31;64.77;97575.69;5093341;28;20127;-63
2023/12/25 01:26:20;;;;;;;4.75;3.70;;;;;;;1.36;65.33;97573.56;5093286;28;20032;-63
2023/12/25 01:28:46;;;;;;;5.53;3.67;;;;;;;1.39;65.08;97575.09;5081838;28;20028;-63
2023/12/25 01:31:12;;;;;;;4.40;3.85;;;;;;;1.42;64.82;97580.13;5072082;28;20067;-64
2023/12/25 01:33:37;;;;;;;5.28;3.97;;;;;;;1.41;64.94;97583.72;5073122;28;20399;-63
2023/12/25 01:36:03;;;;;;;5.10;4.00;;;;;;;1.38;64.70;97584.81;5073189;28;20039;-63
2023/12/25 01:38:29;;;;;;;5.30;3.85;;;;;;;0.99;64.91;97537.75;5080633;28;20746;-61
2023/12/25 01:40:54;;;;;;;4.75;3.80;;;;;;;1.32;65.10;97589.72;5093076;28;20070;-64
2023/12/25 01:43:20;;;;;;;5.90;4.15;;;;;;;1.36;65.01;97591.16;5087362;28;20120;-64
2023/12/25 01:45:45;;;;;;;4.72;3.75;;;;;;;1.29;64.68;97581.09;5084190;28;20044;-63
2023/12/25 01:48:12;;;;;;;5.63;3.95;;;;;;;1.34;64.89;97593.09;5072358;28;20021;-64
2023/12/25 01:50:38;;;;;;;4.30;3.30;;;;;;;1.07;64.56;97546.84;5072224;28;20032;-63
2023/12/25 01:53:04;;;;;;;4.65;3.60;;;;;;;1.36;64.82;97601.72;5071646;28;20028;-63
2023/12/25 01:55:30;;;;;;;4.80;3.72;;;;;;;1.36;65.05;97594.66;5071747;28;20035;-62
2023/12/25 01:57:56;;;;;;;4.55;3.80;;;;;;;1.33;64.75;97587.00;5078336;28;20028;-63
2023/12/25 02:00:22;;;;;;;4.78;3.70;;;;;;;1.29;64.58;97596.06;5073639;28;20039;-68
2023/12/25 02:02:47;;;;;;;4.10;3.42;;;;;;;1.25;65.02;97584.94;5058625;28;20028;-63
2023/12/25 02:05:13;;;;;;;4.63;3.90;;;;;;;1.32;65.38;97590.56;5072873;28;20111;-62
2023/12/25 02:07:42;;;;;;;5.15;4.05;;;;;;;1.39;65.58;97586.50;5072949;28;20024;-63
2023/12/25 02:10:08;;;;;;;5.13;3.78;;;;;;;1.40;65.03;97593.44;5071922;28;20097;-63
2023/12/25 02:12:35;;;;;;;4.50;3.75;;;;;;;1.39;65.19;97580.38;5078528;28;20449;-62
2023/12/25 02:15:02;;;;;;;4.70;3.40;;;;;;;1.45;65.21;97586.97;5092951;28;20035;-63
2023/12/25 02:17:31;;;;;;;5.45;3.97;;;;;;;1.39;65.14;97573.31;5089810;28;20532;-62
2023/12/25 02:19:57;;;;;;;4.93;3.72;;;;;;;1.43;64.83;97592.34;5073956;28;20068;-62
2023/12/25 02:22:23;;;;;;;5.15;4.10;;;;;;;1.46;64.72;97583.38;5072954;28;20115;-62
2023/12/25 02:25:01;;;;;;;4.68;3.83;;;;;;;1.51;65.09;97589.09;5089037;28;20071;-63
2023/12/25 02:27:29;;;;;;;4.55;3.35;;;;;;;1.51;63.90;97576.78;5081965;28;20036;-62
2023/12/25 02:29:55;;;;;;;3.72;3.30;;;;;;;1.43;64.38;97581.81;5071976;28;20044;-63
2023/12/25 02:32:21;;;;;;;5.43;3.35;;;;;;;1.11;64.56;97529.84;5072614;28;20047;-64
2023/12/25 02:34:47;;;;;;;3.78;3.10;;;;;;;1.44;64.28;97580.84;5072442;28;20407;-66
2023/12/25 02:37:13;;;;;;;3.35;3.05;;;;;;;1.42;64.14;97590.66;5072241;28;20017;-74
2023/12/25 02:39:39;;;;;;;3.80;3.00;;;;;;;1.40;64.22;97595.22;5071459;28;20048;-63
2023/12/25 02:42:05;;;;;;;5.95;3.40;;;;;;;1.45;64.68;97595.72;5079485;28;20035;-64
2023/12/25 02:44:31;;;;;;;4.03;3.20;;;;;;;1.40;64.21;97588.19;5092605;28;20097;-64
2023/12/25 02:46:56;;;;;;;4.20;3.20;;;;;;;1.23;63.79;97557.88;5086772;28;20025;-64
2023/12/25 02:49:22;;;;;;;4.25;3.20;;;;;;;1.47;63.88;97592.94;5071048;28;20140;-64
2023/12/25 02:51:48;;;;;;;5.35;3.22;;;;;;;1.47;64.00;97593.81;5072368;28;20028;-63
2023/12/25 02:54:13;;;;;;;5.65;3.20;;;;;;;1.41;64.26;97586.34;5072621;28;20363;-76
2023/12/25 02:56:39;;;;;;;3.90;2.92;;;;;;;1.33;64.23;97573.81;5076769;28;20189;-63
2023/12/25 02:59:05;;;;;;;4.95;3.33;;;;;;;1.37;64.16;97593.69;5074617;28;20089;-62
2023/12/25 03:01:30;;;;;;;5.45;3.65;;;;;;;1.32;64.25;97589.72;5076313;28;20028;-64
2023/12/25 03:03:56;;;;;;;3.97;2.90;;;;;;;1.36;64.28;97596.44;5076424;28;20040;-63
2023/12/25 03:06:21;;;;;;;3.88;3.10;;;;;;;1.32;63.97;97587.91;5076028;28;20032;-63
2023/12/25 03:08:47;;;;;;;3.92;3.25;;;;;;;1.38;64.15;97587.47;5075100;28;20036;-63
2023/12/25 03:11:12;;;;;;;4.93;2.92;;;;;;;1.36;64.07;97580.63;5084986;28;20453;-64
2023/12/25 03:13:38;;;;;;;5.88;3.45;;;;;;;1.44;64.37;97588.75;5096617;28;20161;-64
2023/12/25 03:16:05;;;;;;;4.80;3.40;;;;;;;1.46;64.13;97591.28;5090214;28;20758;-63
2023/12/25 03:18:31;;;;;;;5.90;3.45;;;;;;;1.46;63.79;97605.31;5079673;28;20028;-62
2023/12/25 03:20:57;;;;;;;4.63;3.30;;;;;;;1.44;63.94;97599.28;5075599;28;20336;-61
2023/12/25 03:23:22;;;;;;;5.07;3.17;;;;;;;1.43;64.17;97602.91;5075693;28;20118;-63
2023/12/25 03:25:48;;;;;;;3.97;3.40;;;;;;;1.41;64.17;97599.53;5083888;28;20124;-64
2023/12/25 03:28:13;;;;;;;5.45;3.15;;;;;;;1.47;63.79;97608.78;5096034;28;20063;-62
2023/12/25 03:30:39;;;;;;;6.38;3.33;;;;;;;1.51;63.87;97604.94;5094670;28;20478;-62
2023/12/25 03:33:05;;;;;;;4.40;3.45;;;;;;;1.50;63.54;97596.19;5095746;28;20145;-63
2023/12/25 03:35:30;;;;;;;4.80;3.15;;;;;;;1.35;63.20;97568.41;5090876;28;20040;-63
2023/12/25 03:37:58;;;;;;;4.43;3.20;;;;;;;1.32;63.19;97571.28;5095086;28;20044;-62
2023/12/25 03:40:24;;;;;;;3.33;2.90;;;;;;;1.43;63.30;97601.13;5086837;28;20094;-62
2023/12/25 03:42:49;;;;;;;4.78;3.13;;;;;;;1.41;63.54;97594.28;5074803;28;20040;-63
2023/12/25 03:45:15;;;;;;;3.80;3.20;;;;;;;1.35;63.85;97589.50;5075059;28;20063;-64
2023/12/25 03:47:40;;;;;;;5.22;3.30;;;;;;;1.28;63.83;97571.53;5074870;28;20465;-61
2023/12/25 03:50:06;;;;;;;5.22;3.72;;;;;;;1.33;63.80;97583.50;5074133;28;20098;-63
2023/12/25 03:52:32;;;;;;;5.97;4.05;;;;;;;1.36;64.01;97586.75;5075525;28;20025;-63
2023/12/25 03:54:57;;;;;;;7.07;3.60;;;;;;;1.36;64.09;97591.16;5089152;28;20024;-63
2023/12/25 03:57:23;;;;;;;4.53;3.55;;;;;;;1.32;63.45;97584.47;5092521;28;20032;-64
2023/12/25 03:59:48;;;;;;;5.18;3.67;;;;;;;1.34;63.53;97579.91;5094875;28;20028;-63
2023/12/25 04:02:14;;;;;;;4.72;3.47;;;;;;;1.28;63.48;97575.94;5095450;28;20028;-65
2023/12/25 04:04:39;;;;;;;5.15;3.60;;;;;;;1.30;63.96;97579.28;5076748;28;20020;-63
2023/12/25 04:07:05;;;;;;;4.97;3.47;;;;;;;1.34;63.82;97578.13;5075963;28;20024;-64
2023/12/25 04:09:31;;;;;;;4.72;3.42;;;;;;;1.37;63.70;97585.78;5073871;28;20027;-64
2023/12/25 04:11:56;;;;;;;4.70;3.35;;;;;;;1.36;63.49;97583.25;5093134;28;20165;-64
2023/12/25 04:14:22;;;;;;;5.28;3.42;;;;;;;1.32;63.59;97580.00;5093911;28;20040;-62
2023/12/25 04:16:47;;;;;;;4.07;3.05;;;;;;;1.29;63.89;97569.72;5093958;28;20032;-75
2023/12/25 04:19:13;;;;;;;5.50;3.70;;;;;;;1.33;63.99;97586.13;5094790;28;20380;-62
2023/12/25 04:21:38;;;;;;;4.68;3.33;;;;;;;1.31;64.02;97573.06;5092118;28;20355;-64
2023/12/25 04:24:04;;;;;;;5.78;3.80;;;;;;;1.29;63.64;97565.28;5093075;28;20119;-63
2023/12/25 04:26:29;;;;;;;4.32;3.65;;;;;;;1.33;63.96;97575.59;5091325;28;20026;-65
2023/12/25 04:28:55;;;;;;;4.57;3.40;;;;;;;1.33;63.91;97575.59;5093648;28;20024;-64
2023/12/25 04:31:22;;;;;;;5.13;3.50;;;;;;;1.27;64.06;97567.22;5094424;28;20040;-62
2023/12/25 04:33:47;;;;;;;5.47;3.50;;;;;;;1.20;64.17;97559.91;5093947;28;20035;-64
2023/12/25 04:36:13;;;;;;;4.45;3.13;;;;;;;1.26;63.81;97575.22;5090631;28;20035;-65
2023/12/25 04:38:39;;;;;;;4.07;3.28;;;;;;;1.19;63.80;97568.78;5092973;28;20059;-63
2023/12/25 04:41:05;;;;;;;4.25;3.22;;;;;;;1.26;63.98;97575.22;5093995;28;20121;-63
2023/12/25 04:43:31;;;;;;;3.85;3.13;;;;;;;1.30;63.92;97571.38;5093734;28;20035;-64
2023/12/25 04:45:57;;;;;;;4.60;3.50;;;;;;;1.23;63.68;97559.66;5093642;28;20019;-63
2023/12/25 04:48:22;;;;;;;4.97;3.30;;;;;;;1.28;63.61;97576.81;5092285;28;20490;-63
2023/12/25 04:50:48;;;;;;;5.13;3.38;;;;;;;1.27;63.74;97567.22;5092449;28;20407;-63
2023/12/25 04:53:14;;;;;;;3.72;3.05;;;;;;;1.30;63.49;97566.13;5091669;28;20381;-64
2023/12/25 04:55:40;;;;;;;5.95;3.20;;;;;;;1.31;63.27;97572.25;5092517;28;20120;-65
2023/12/25 04:58:06;;;;;;;4.43;3.50;;;;;;;1.31;64.44;97572.25;5092862;28;20054;-64
2023/12/25 05:00:32;;;;;;;7.60;3.80;;;;;;;1.28;63.70;97571.53;5092820;28;20431;-62
2023/12/25 05:02:59;;;;;;;5.47;4.00;;;;;;;1.33;64.29;97580.88;5093615;28;20050;-64
2023/12/25 05:05:25;;;;;;;6.15;4.22;;;;;;;1.29;63.72;97572.34;5089443;28;20439;-65
2023/12/25 05:07:52;;;;;;;5.80;4.32;;;;;;;1.31;64.02;97573.06;5074661;28;20105;-66
2023/12/25 05:10:17;;;;;;;6.18;5.07;;;;;;;1.33;63.98;97572.97;5073760;28;20394;-64
2023/12/25 05:12:44;;;;;;;7.13;5.18;;;;;;;1.33;63.93;97580.88;5073110;28;20162;-64
2023/12/25 05:15:10;;;;;;;7.57;4.80;;;;;;;1.33;64.20;97583.50;5079764;28;20110;-66
2023/12/25 05:17:35;;;;;;;6.43;4.85;;;;;;;1.28;63.64;97573.31;5092248;28;20028;-65
2023/12/25 05:20:01;;;;;;;6.22;4.72;;;;;;;1.21;64.46;97582.66;5091300;28;20761;-63
2023/12/25 05:22:27;;;;;;;7.03;5.00;;;;;;;1.16;64.42;97572.47;5074394;28;20116;-63
2023/12/25 05:24:52;;;;;;;7.13;4.93;;;;;;;1.14;64.59;97564.69;5073073;28;20542;-64
2023/12/25 05:27:18;;;;;;;7.55;4.80;;;;;;;1.22;64.64;97571.16;5078001;28;20024;-63
2023/12/25 05:29:44;;;;;;;6.57;4.53;;;;;;;1.16;64.43;97569.84;5093281;28;20108;-63
2023/12/25 05:32:09;;;;;;;8.13;4.68;;;;;;;0.97;64.47;97533.56;5093406;28;20085;-65
2023/12/25 05:34:35;;;;;;;6.07;4.93;;;;;;;1.14;65.12;97566.50;5092020;28;20020;-63
2023/12/25 05:37:00;;;;;;;8.93;4.80;;;;;;;1.13;64.56;97564.81;5076393;28;20431;-63
2023/12/25 05:39:26;;;;;;;6.75;4.20;;;;;;;1.16;64.64;97577.75;5083299;28;20422;-65
2023/12/25 05:41:53;;;;;;;6.13;4.30;;;;;;;1.18;64.94;97573.19;5093136;28;20369;-71
2023/12/25 05:44:19;;;;;;;5.68;4.55;;;;;;;1.21;64.59;97572.97;5092990;28;20046;-65
2023/12/25 05:46:44;;;;;;;7.88;5.03;;;;;;;0.99;64.29;97532.50;5087154;28;20037;-64
2023/12/25 05:49:10;;;;;;;5.82;4.15;;;;;;;1.18;64.61;97565.28;5072907;28;20060;-65
2023/12/25 05:51:35;;;;;;;6.95;4.28;;;;;;;1.26;63.78;97564.69;5088166;28;20024;-65
2023/12/25 05:54:01;;;;;;;5.13;3.90;;;;;;;1.24;63.97;97579.78;5092937;28;20081;-64
2023/12/25 05:56:27;;;;;;;4.97;3.75;;;;;;;1.27;63.41;97575.13;5093209;28;20085;-65
2023/12/25 05:58:53;;;;;;;5.50;3.67;;;;;;;0.96;63.75;97532.69;5093215;28;20039;-68
2023/12/25 06:01:18;;;;;;;5.10;3.67;;;;;;;1.26;63.83;97594.53;5090466;28;20028;-64
2023/12/25 06:03:44;;;;;;;5.50;3.95;;;;;;;1.26;63.55;97588.41;5075249;28;20040;-65
2023/12/25 06:06:10;;;;;;;5.07;4.13;;;;;;;1.22;63.01;97579.91;5088734;28;20496;-67
2023/12/25 06:08:35;;;;;;;5.45;3.72;;;;;;;1.25;63.50;97582.31;5092797;28;20067;-63
2023/12/25 06:11:01;;;;;;;6.65;3.63;;;;;;;1.30;63.43;97589.84;5092670;28;20360;-64
2023/12/25 06:13:27;;;;;;;5.18;3.70;;;;;;;0.84;63.12;97515.22;5093093;28;20024;-65
2023/12/25 06:15:53;;;;;;;6.68;3.92;;;;;;;1.33;62.75;97594.91;5092413;28;20024;-65
2023/12/25 06:18:19;;;;;;;6.03;3.85;;;;;;;1.33;62.72;97591.41;5081043;28;20082;-64
2023/12/25 06:20:44;;;;;;;4.78;3.72;;;;;;;1.32;62.63;97592.38;5072221;28;20039;-64
2023/12/25 06:23:10;;;;;;;5.55;3.88;;;;;;;1.21;62.64;97577.41;5071645;28;20028;-65
2023/12/25 06:25:36;;;;;;;5.35;4.00;;;;;;;1.32;62.91;97592.38;5087520;28;20432;-64
2023/12/25 06:28:02;;;;;;;5.97;3.90;;;;;;;1.30;62.56;97587.19;5091411;28;20108;-70
2023/12/25 06:30:28;;;;;;;4.05;3.35;;;;;;;1.27;61.90;97583.03;5092089;28;20478;-64
2023/12/25 06:32:54;;;;;;;6.82;4.07;;;;;;;1.23;61.98;97580.75;5087731;28;20435;-65
2023/12/25 06:35:20;;;;;;;5.07;3.80;;;;;;;1.22;62.19;97577.28;5072640;28;20043;-64
2023/12/25 06:37:45;;;;;;;5.45;3.40;;;;;;;1.23;62.04;97573.69;5072557;28;20044;-64
2023/12/25 06:40:11;;;;;;;6.40;3.97;;;;;;;1.22;62.28;97573.81;5071413;28;20024;-63
2023/12/25 06:42:36;;;;;;;4.90;3.60;;;;;;;1.23;61.81;97578.97;5054737;28;20059;-64
2023/12/25 06:45:02;;;;;;;5.10;3.80;;;;;;;1.21;62.13;97578.25;5088036;28;20336;-64
2023/12/25 06:47:29;;;;;;;4.78;3.33;;;;;;;1.23;61.88;97568.41;5088732;28;20145;-63
2023/12/25 06:49:55;;;;;;;3.75;3.20;;;;;;;1.23;62.37;97568.41;5071994;28;20051;-65
2023/12/25 06:52:20;;;;;;;4.70;3.22;;;;;;;1.23;61.62;97575.47;5074135;28;20032;-63
2023/12/25 06:54:46;;;;;;;3.85;3.05;;;;;;;1.17;61.57;97562.78;5092690;28;20028;-65
2023/12/25 06:57:13;;;;;;;4.57;3.40;;;;;;;1.25;61.87;97568.28;5092259;28;20056;-63
2023/12/25 06:59:43;;;;;;;3.95;3.30;;;;;;;1.03;61.45;97529.59;5092039;28;20107;-63
2023/12/25 07:02:09;;;;;;;4.10;3.40;;;;;;;1.30;61.48;97576.66;5086856;28;20032;-62
2023/12/25 07:04:35;;;;;;;5.22;3.85;;;;;;;1.16;61.46;97569.84;5084401;28;20096;-63
2023/12/25 07:07:00;;;;;;;5.25;3.47;;;;;;;1.20;61.50;97566.00;5091956;28;20028;-62
2023/12/25 07:09:26;;;;;;;6.20;3.85;;;;;;;1.29;61.88;97574.97;5094401;28;20054;-67
2023/12/25 07:11:51;;;;;;;4.22;3.33;;;;;;;1.26;61.32;97559.41;5087326;28;20028;-67
2023/12/25 07:14:18;;;;;;;6.25;4.00;;;;;;;1.30;61.34;97560.84;5092286;28;20038;-70
2023/12/25 07:16:43;;;;;;;6.85;4.00;;;;;;;1.39;61.79;97569.81;5087404;28;20032;-65
2023/12/25 07:19:09;;;;;;;5.28;3.47;;;;;;;1.42;60.99;97578.34;5100965;28;20445;-66
2023/12/25 07:21:34;;;;;;;6.20;3.92;;;;;;;1.50;61.25;97569.81;5096084;28;20036;-65
2023/12/25 07:24:00;;;;;;;6.43;3.70;;;;;;;1.55;60.42;97572.06;5095157;28;20024;-64
2023/12/25 07:26:25;;;;;;;7.00;4.30;;;;;;;1.48;61.03;97566.47;5076102;28;20020;-66
2023/12/25 07:28:51;;;;;;;5.22;4.05;;;;;;;1.53;60.87;97568.72;5089598;28;20035;-67
2023/12/25 07:31:18;;;;;;;8.75;4.18;;;;;;;1.53;60.94;97566.09;5083891;28;20071;-67
2023/12/25 07:33:43;;;;;;;5.10;4.13;;;;;;;1.22;60.80;97532.47;5088473;28;20458;-69
2023/12/25 07:36:09;;;;;;;5.05;3.95;;;;;;;1.48;61.24;97577.03;5090801;28;20020;-70
2023/12/25 07:38:35;;;;;;;5.20;3.88;;;;;;;1.44;60.87;97570.28;5089808;28;20031;-67
2023/12/25 07:41:01;;;;;;;6.28;4.50;;;;;;;1.35;60.82;97573.66;5091447;28;20427;-66
2023/12/25 07:43:27;;;;;;;7.93;4.80;;;;;;;1.16;61.63;97540.03;5091897;28;20036;-66
2023/12/25 07:45:53;;;;;;;6.85;4.82;;;;;;;1.25;61.70;97569.13;5094145;28;20027;-66
2023/12/25 07:48:18;;;;;;;6.47;4.45;;;;;;;1.23;62.22;97559.66;5094552;28;20028;-69
2023/12/25 07:50:44;;;;;;;5.82;4.22;;;;;;;1.03;62.31;97521.69;5095195;28;20081;-69
2023/12/25 07:53:09;;;;;;;7.88;4.38;;;;;;;1.21;62.13;97543.97;5095251;28;20111;-70
2023/12/25 07:55:38;;;;;;;6.45;4.78;;;;;;;1.20;62.14;97550.19;5095839;28;20151;-65
2023/12/25 07:58:04;;;;;;;7.00;4.63;;;;;;;1.16;62.36;97554.03;5103254;28;20046;-69
2023/12/25 08:00:29;;;;;;;13.48;9.15;;;;;;;1.13;62.49;97555.13;5097682;28;20023;-66
2023/12/25 08:02:55;;;;;;;7.95;5.18;;;;;;;1.05;62.72;97561.94;5114617;28;20407;-64
2023/12/25 08:05:20;;;;;;;8.10;4.88;;;;;;;0.93;62.44;97532.94;5093907;28;20079;-65
2023/12/25 08:07:46;;;;;;;8.98;4.68;;;;;;;1.04;62.39;97550.56;5089075;28;20359;-65
2023/12/25 08:10:11;;;;;;;6.72;5.13;;;;;;;1.06;62.30;97553.09;5080399;28;20024;-63
2023/12/25 08:12:42;;;;;;;8.07;4.95;;;;;;;1.05;62.78;97539.06;5074429;28;20032;-63
2023/12/25 08:15:10;;;;;;;9.05;6.28;;;;;;;0.72;63.04;97493.31;5074344;28;20040;-62
2023/12/25 08:17:35;;;;;;;9.32;6.20;;;;;;;1.04;63.31;97550.56;5084969;28;20021;-63
2023/12/25 08:20:01;;;;;;;8.73;5.50;;;;;;;1.03;63.16;97526.97;5084242;28;20462;-63
2023/12/25 08:22:27;;;;;;;8.35;5.45;;;;;;;1.11;63.18;97530.69;5079815;28;20331;-63
2023/12/25 08:24:53;;;;;;;11.00;5.65;;;;;;;1.21;63.33;97528.16;5079472;28;20031;-62
2023/12/25 08:27:18;;;;;;;10.75;6.10;;;;;;;1.28;63.19;97518.81;5080737;28;20044;-63
2023/12/25 08:29:44;;;;;;;7.28;5.15;;;;;;;1.43;62.16;97524.63;5083755;28;20040;-61
2023/12/25 08:32:10;;;;;;;6.72;5.30;;;;;;;1.51;61.30;97515.28;5088421;28;20472;-61
2023/12/25 08:34:38;;;;;;;7.60;5.32;;;;;;;1.58;61.43;97514.66;5083497;28;20036;-58
2023/12/25 08:37:04;;;;;;;8.68;5.25;;;;;;;1.70;60.59;97517.28;5094067;28;20443;-60
2023/12/25 08:39:29;;;;;;;7.05;5.18;;;;;;;1.76;60.12;97513.28;5094177;28;20036;-62
2023/12/25 08:41:56;;;;;;;7.07;5.05;;;;;;;1.62;59.86;97477.47;5093198;28;20039;-62
2023/12/25 08:44:23;;;;;;;6.88;5.10;;;;;;;1.89;59.85;97507.81;5083995;28;20055;-64
2023/12/25 08:46:49;;;;;;;8.15;5.63;;;;;;;1.95;59.54;97508.16;5081843;28;20722;-69
2023/12/25 08:49:14;;;;;;;10.32;6.68;;;;;;;1.97;59.52;97510.69;5093552;28;20024;-73
2023/12/25 08:51:40;;;;;;;10.85;6.80;;;;;;;1.80;58.98;97472.47;5086541;28;20354;-69
2023/12/25 08:54:07;;;;;;;14.50;7.72;;;;;;;2.00;59.74;97495.41;5078921;28;20424;-72
2023/12/25 08:56:33;;;;;;;9.45;5.78;;;;;;;1.97;59.07;97492.22;5074307;28;20099;-75
2023/12/25 08:59:00;;;;;;;11.15;6.32;;;;;;;1.94;59.18;97495.13;5085745;28;20470;-74
2023/12/25 09:01:26;;;;;;;10.30;6.20;;;;;;;1.89;58.96;97487.56;5078558;28;20033;-68
2023/12/25 09:03:52;;;;;;;10.73;5.75;;;;;;;1.86;58.87;97472.81;5091922;28;20046;-78
2023/12/25 09:06:17;;;;;;;10.35;5.88;;;;;;;1.91;58.94;97479.50;5088129;28;20510;-67
2023/12/25 09:08:43;;;;;;;10.20;6.07;;;;;;;1.90;58.51;97483.13;5081470;28;20024;-66
2023/12/25 09:11:09;;;;;;;6.15;4.63;;;;;;;1.90;58.48;97477.84;5089454;28;20448;-68
2023/12/25 09:13:35;;;;;;;8.15;5.00;;;;;;;1.82;58.76;97462.66;5078760;28;20048;-66
2023/12/25 09:16:01;;;;;;;8.13;4.60;;;;;;;1.88;58.15;97467.44;5079012;28;20024;-66
2023/12/25 09:18:27;;;;;;;6.15;4.22;;;;;;;1.82;58.03;97454.75;5079570;28;20136;-64
2023/12/25 09:20:52;;;;;;;5.60;4.22;;;;;;;1.64;57.90;97423.66;5082480;28;20039;-72
2023/12/25 09:23:18;;;;;;;8.00;4.18;;;;;;;1.91;58.13;97461.88;5081078;28;20040;-69
2023/12/25 09:25:44;;;;;;;5.22;3.63;;;;;;;1.86;57.28;97450.88;5092357;28;20024;-73
2023/12/25 09:28:09;;;;;;;7.35;4.03;;;;;;;1.84;56.97;97440.44;5090618;28;20063;-75
2023/12/25 09:30:35;;;;;;;5.57;3.20;;;;;;;1.93;57.04;97465.22;5082280;28;20522;-78
2023/12/25 09:33:01;;;;;;;5.45;3.50;;;;;;;1.95;55.93;97454.56;5073408;28;20124;-76
2023/12/25 09:35:26;;;;;;;4.18;3.20;;;;;;;1.82;56.35;97439.75;5081444;28;20047;-73
2023/12/25 09:37:52;;;;;;;5.50;3.85;;;;;;;1.85;56.35;97439.47;5093379;28;20093;-78
2023/12/25 09:40:17;;;;;;;5.97;4.00;;;;;;;1.85;56.16;97444.75;5094096;28;20847;-78
2023/12/25 09:42:45;;;;;;;7.72;3.35;;;;;;;1.83;56.35;97446.69;5093812;28;20059;-79
2023/12/25 09:45:13;;;;;;;7.53;3.88;;;;;;;1.48;55.97;97395.06;5093963;28;20031;-77
2023/12/25 09:47:39;;;;;;;5.20;3.55;;;;;;;1.76;55.07;97432.34;5092691;28;20032;-76
2023/12/25 09:50:05;;;;;;;3.83;3.20;;;;;;;1.77;55.71;97431.38;5092305;28;20141;-75
2023/12/25 09:52:31;;;;;;;5.25;3.05;;;;;;;1.75;54.95;97425.41;5091996;28;20043;-76
2023/12/25 09:54:56;;;;;;;4.25;3.00;;;;;;;1.79;54.54;97436.50;5092849;28;20115;-77
2023/12/25 09:57:24;;;;;;;5.75;3.53;;;;;;;1.77;54.50;97426.09;5088290;28;20032;-81
2023/12/25 09:59:52;;;;;;;5.68;3.20;;;;;;;1.77;54.48;97430.53;5087661;28;20115;-79
2023/12/25 10:02:21;;;;;;;5.38;3.00;;;;;;;1.79;53.66;97429.44;5091432;28;20032;-78
2023/12/25 10:04:48;;;;;;;5.93;2.92;;;;;;;1.75;54.01;97422.75;5092839;28;20035;-79
2023/12/25 10:07:14;;;;;;;6.03;3.08;;;;;;;1.73;54.14;97427.31;5092411;28;20089;-77
2023/12/25 10:09:42;;;;;;;5.68;3.05;;;;;;;1.73;53.46;97416.78;5091796;28;20027;-77
2023/12/25 10:12:08;;;;;;;4.40;2.70;;;;;;;1.70;53.63;97414.41;5086678;28;20061;-78
2023/12/25 10:14:34;;;;;;;5.78;3.67;;;;;;;1.41;52.78;97359.59;5072903;28;20352;-78
2023/12/25 10:17:01;;;;;;;5.70;3.50;;;;;;;1.56;53.27;97402.31;5072534;28;20029;-77
2023/12/25 10:19:27;;;;;;;8.30;3.80;;;;;;;1.55;52.99;97411.19;5073167;28;20503;-79
2023/12/25 10:21:53;;;;;;;5.25;3.00;;;;;;;1.55;52.97;97413.84;5083967;28;20111;-78
2023/12/25 10:24:25;;;;;;;6.03;3.38;;;;;;;1.58;53.13;97408.34;5072738;28;20028;-78
2023/12/25 10:26:50;;;;;;;4.40;3.10;;;;;;;1.50;53.54;97413.38;5072216;28;20561;-78
2023/12/25 10:29:16;;;;;;;5.88;3.15;;;;;;;1.49;53.59;97407.28;5072316;28;20139;-78
2023/12/25 10:31:47;;;;;;;4.32;3.25;;;;;;;1.48;53.78;97405.63;5071976;28;20367;-78
2023/12/25 10:34:18;;;;;;;4.10;2.72;;;;;;;1.48;53.63;97399.50;5080286;28;20020;-77
2023/12/25 10:36:47;;;;;;;4.95;3.25;;;;;;;1.43;54.01;97403.34;5091423;28;20055;-78
2023/12/25 10:39:13;;;;;;;5.47;3.63;;;;;;;1.40;53.63;97379.03;5092565;28;20377;-78
2023/12/25 10:41:39;;;;;;;5.70;2.67;;;;;;;1.47;52.93;97388.13;5092503;28;20088;-78
2023/12/25 10:44:05;;;;;;;5.38;3.30;;;;;;;1.47;53.30;97382.84;5092781;28;20032;-78
2023/12/25 10:46:36;;;;;;;5.82;2.75;;;;;;;1.42;52.66;97363.91;5093154;28;20180;-76
2023/12/25 10:49:05;;;;;;;6.22;3.40;;;;;;;1.46;52.70;97381.19;5092618;28;20028;-80
2023/12/25 10:51:43;;;;;;;5.65;3.00;;;;;;;1.49;52.99;97390.63;5091851;28;20057;-75
2023/12/25 10:54:10;;;;;;;6.35;2.40;;;;;;;1.33;52.72;97370.81;5092839;28;20032;-78
2023/12/25 10:56:42;;;;;;;4.78;3.28;;;;;;;1.37;53.45;97388.03;5092726;28;20050;-79
2023/12/25 10:59:16;;;;;;;4.63;2.90;;;;;;;1.39;53.64;97372.06;5092341;28;20036;-80
2023/12/25 11:01:48;;;;;;;4.25;2.58;;;;;;;1.41;52.81;97371.00;5091500;28;20027;-78
2023/12/25 11:04:20;;;;;;;4.53;2.72;;;;;;;1.40;52.58;97369.31;5092061;28;20032;-76
2023/12/25 11:06:46;;;;;;;5.20;3.10;;;;;;;1.38;52.39;97370.41;5092303;28;20024;-78
2023/12/25 11:09:14;;;;;;;7.88;2.92;;;;;;;1.39;52.10;97370.28;5092157;28;20036;-78
2023/12/25 11:11:41;;;;;;;4.97;3.22;;;;;;;1.27;52.71;97348.41;5092475;28;20028;-79
2023/12/25 11:14:07;;;;;;;4.35;3.08;;;;;;;1.31;52.51;97356.06;5091660;28;20531;-79
2023/12/25 11:16:36;;;;;;;4.45;3.20;;;;;;;1.34;52.44;97346.13;5091378;28;20107;-80
2023/12/25 11:19:02;;;;;;;4.85;2.60;;;;;;;1.28;52.39;97351.88;5093851;28;20062;-78
2023/12/25 11:21:29;;;;;;;4.28;2.63;;;;;;;1.32;51.30;97342.75;5096098;28;20036;-69
2023/12/25 11:23:55;;;;;;;4.00;2.20;;;;;;;1.10;51.40;97318.19;5095987;28;20040;-77
2023/12/25 11:26:24;;;;;;;3.92;2.25;;;;;;;1.30;51.78;97344.66;5096063;28;20106;-78
2023/12/25 11:28:57;;;;;;;3.38;2.47;;;;;;;1.36;51.84;97327.50;5095691;28;20051;-78
2023/12/25 11:31:23;;;;;;;5.07;2.83;;;;;;;1.12;51.48;97295.16;5095770;28;20370;-78
2023/12/25 11:33:49;;;;;;;3.67;2.55;;;;;;;1.42;51.64;97321.72;5094994;28;20028;-75
2023/12/25 11:36:16;;;;;;;5.18;2.90;;;;;;;1.41;51.25;97315.63;5095072;28;20028;-78